Loyal, WI (54446)

4:39 AM CDT on July 24, 2016 (GMT -0500)
Backyard, N. Andrews Ave | | Change Station

Elev 1161 ft 44.77 °N, 90.60 °W | Updated 5 seconds ago

Overcast
Overcast
70.9 °F
Feels Like 70.9 °F
N
3.1
Wind Variable Wind from SSW
Gusts 5.8 mph

Today
High -- | Low -- °F
--% Chance of Precip.
Yesterday
High -- | Low -- °F
Precip. -- in
Pressure 29.82 in
Visibility 10.0 miles
Clouds Overcast 900 ft
Dew Point 70 °F
Humidity 97%
Rainfall 0.00 in
Snow Depth Not available.
5:39 AM 8:36 PM
Waning Gibbous, 78% visible
SPECI KMFI 240912Z AUTO 17003KT 10SM OVC009 22/20 A2982 RMK AO2 T02170200
Pressure 29.82 in
Visibility 10.0 miles
Clouds Overcast 900 ft
Dew Point 70 °F
Humidity 97%
Rainfall 0.00 in
Snow Depth Not available.
5:39 AM 8:36 PM
Waning Gibbous, 78% visible
SPECI KMFI 240912Z AUTO 17003KT 10SM OVC009 22/20 A2982 RMK AO2 T02170200

10-Day Weather Forecast

Almanac

Astronomy

Jul. 24, 2016 Rise Set
Actual Time
Civil Twilight
Nautical Twilight
Astronomical Twilight
Moon
Length of Visible Light
Length of Day
Tomorrow will be .
, % of the Moon is Illuminated

Today's Extremes

State Highs State Lows

Community

WunderPhotos

Upload Photos

1,927,042 photos uploaded!

WunderBlog® & News

Nearby

Air Quality

  Air Quality AQ Index Pollutant
Not available.

Snow Depth

Station Depth Elevation

Earthquake Activity

City Distance Mag. Time & Date
Minimum magnitude displayed is 2.5.

Coastal Water Temperatures

Place Temperature

Stations

Nearby Weather Stations

Station Location Temp. Windchill Dew Point Humidity Wind Precip. Elev Updated Type
                   

Watches & Warnings

There are currently no watches in effect.